Huvudsida
METAR-TAF:

METAR-TAF

Flygplatser :

Røsts flygplats

Røst, Norge

latitud: 67-31N, longitud: 012-06E, höjd: 4 m

Aktuellt väderrapport

Denna rapport gjordes för 11 timmar och 16 minuter sedan, klockan 18:50 UTC
Vind 18 kt från syd/sydväst
Temperatur 10°C
Fuktighet 93%
Tryck 1012 hPa
Sikt 10 km eller mer
Brutna moln på en höjd av 1000 ft
skurar i närheten

METAR: ENRS 151850Z 21018KT 9999 VCSH BKN010 10/09 Q1012

Tid: 07:06 (06:06 UTC)


TAF: saknas

Aktuella väderrapporter och prognoser från 4000 flygplatser (METAR- och TAF-rapporter).

De tillgängliga stationerna syns som gula och röda prickar på kartan.

För musen över prickarna för att se namnen på stationerna.

Klicka sedan för att få väderrapporter och prognoser.

För att ändra kartan: Klicka på de gröna knapparna med ett svart kors på för att zooma in; den gröna knappen med ett streck på för att zooma ut; eller på de gröna pilarna för angränsande kartor.


METAR-TAF: